sensor_id;sensor_type;location;lat;lon;timestamp;pressure;altitude;pressure_sealevel;temperature;humidity
39435;BME280;30098;51.880;-0.518;2022-12-17T00:01:22;100943.47;;;14.47;31.21
39435;BME280;30098;51.880;-0.518;2022-12-17T00:04:06;100804.97;;;13.54;30.78
39435;BME280;30098;51.880;-0.518;2022-12-17T00:06:50;101087.47;;;15.35;30.99
39435;BME280;30098;51.880;-0.518;2022-12-17T00:09:34;101080.69;;;15.37;30.95
39435;BME280;30098;51.880;-0.518;2022-12-17T00:12:18;101077.19;;;15.37;31.00
39435;BME280;30098;51.880;-0.518;2022-12-17T00:15:02;101090.75;;;15.37;30.90
39435;BME280;30098;51.880;-0.518;2022-12-17T00:17:46;101095.34;;;15.36;30.71
39435;BME280;30098;51.880;-0.518;2022-12-17T00:20:30;101080.16;;;15.35;31.27
39435;BME280;30098;51.880;-0.518;2022-12-17T00:23:14;101082.06;;;15.35;30.75
39435;BME280;30098;51.880;-0.518;2022-12-17T00:25:58;101077.97;;;15.27;31.09
39435;BME280;30098;51.880;-0.518;2022-12-17T00:28:42;101090.47;;;15.33;30.88
39435;BME280;30098;51.880;-0.518;2022-12-17T00:31:27;101083.13;;;15.34;31.00
39435;BME280;30098;51.880;-0.518;2022-12-17T00:34:12;101085.06;;;15.33;30.84
39435;BME280;30098;51.880;-0.518;2022-12-17T00:36:56;101078.78;;;15.33;30.85
39435;BME280;30098;51.880;-0.518;2022-12-17T00:39:40;101078.25;;;15.31;30.70
39435;BME280;30098;51.880;-0.518;2022-12-17T00:42:24;101061.69;;;15.27;30.96
39435;BME280;30098;51.880;-0.518;2022-12-17T00:45:08;101062.47;;;15.12;31.13
39435;BME280;30098;51.880;-0.518;2022-12-17T00:47:52;101080.16;;;15.30;30.90
39435;BME280;30098;51.880;-0.518;2022-12-17T00:50:36;101080.16;;;15.30;30.99
39435;BME280;30098;51.880;-0.518;2022-12-17T00:53:20;101083.94;;;15.29;30.79
39435;BME280;30098;51.880;-0.518;2022-12-17T00:56:04;101072.28;;;15.29;31.18
39435;BME280;30098;51.880;-0.518;2022-12-17T00:58:48;101042.94;;;15.15;30.76
39435;BME280;30098;51.880;-0.518;2022-12-17T01:01:32;101084.22;;;15.28;30.64
39435;BME280;30098;51.880;-0.518;2022-12-17T01:04:16;101069.84;;;15.27;31.09
39435;BME280;30098;51.880;-0.518;2022-12-17T01:07:00;101065.75;;;15.19;30.99
39435;BME280;30098;51.880;-0.518;2022-12-17T01:09:44;101046.72;;;15.09;30.86
39435;BME280;30098;51.880;-0.518;2022-12-17T01:12:28;101030.94;;;14.96;30.75
39435;BME280;30098;51.880;-0.518;2022-12-17T01:15:12;101075.50;;;15.25;30.78
39435;BME280;30098;51.880;-0.518;2022-12-17T01:17:57;101070.38;;;15.24;30.90
39435;BME280;30098;51.880;-0.518;2022-12-17T01:20:40;101067.66;;;15.24;30.88
39435;BME280;30098;51.880;-0.518;2022-12-17T01:23:24;101062.22;;;15.24;30.83
39435;BME280;30098;51.880;-0.518;2022-12-17T01:26:08;100939.13;;;14.46;30.95
39435;BME280;30098;51.880;-0.518;2022-12-17T01:28:53;101048.38;;;15.15;31.13
39435;BME280;30098;51.880;-0.518;2022-12-17T01:31:39;101073.34;;;15.22;30.92
39435;BME280;30098;51.880;-0.518;2022-12-17T01:34:22;101052.72;;;15.21;30.64
39435;BME280;30098;51.880;-0.518;2022-12-17T01:37:07;101062.75;;;15.21;30.84
39435;BME280;30098;51.880;-0.518;2022-12-17T01:39:51;101060.03;;;15.21;30.91
39435;BME280;30098;51.880;-0.518;2022-12-17T01:42:44;101067.38;;;15.20;30.98
39435;BME280;30098;51.880;-0.518;2022-12-17T01:45:44;101018.19;;;14.91;30.81
39435;BME280;30098;51.880;-0.518;2022-12-17T01:48:37;100940.75;;;14.42;31.13
39435;BME280;30098;51.880;-0.518;2022-12-17T01:51:22;101005.97;;;14.83;30.52
39435;BME280;30098;51.880;-0.518;2022-12-17T01:54:08;101066.03;;;15.18;30.95
39435;BME280;30098;51.880;-0.518;2022-12-17T01:56:52;101067.91;;;15.17;30.76
39435;BME280;30098;51.880;-0.518;2022-12-17T02:02:24;101064.38;;;15.17;31.13
39435;BME280;30098;51.880;-0.518;2022-12-17T02:05:08;101014.91;;;14.73;30.66
39435;BME280;30098;51.880;-0.518;2022-12-17T02:08:02;101048.06;;;15.06;30.87
39435;BME280;30098;51.880;-0.518;2022-12-17T02:17:17;101061.13;;;15.15;30.85
39435;BME280;30098;51.880;-0.518;2022-12-17T02:20:23;101063.81;;;15.15;31.02
39435;BME280;30098;51.880;-0.518;2022-12-17T02:26:01;101064.09;;;15.13;30.93
39435;BME280;30098;51.880;-0.518;2022-12-17T02:28:48;101058.69;;;15.13;30.90
39435;BME280;30098;51.880;-0.518;2022-12-17T02:31:41;101062.47;;;15.12;30.89
39435;BME280;30098;51.880;-0.518;2022-12-17T02:34:27;101065.19;;;15.12;30.72
39435;BME280;30098;51.880;-0.518;2022-12-17T02:37:11;100979.84;;;14.61;30.94
39435;BME280;30098;51.880;-0.518;2022-12-17T02:39:55;101052.41;;;15.07;30.70
39435;BME280;30098;51.880;-0.518;2022-12-17T02:42:41;101048.06;;;15.06;30.85
39435;BME280;30098;51.880;-0.518;2022-12-17T02:45:26;101051.88;;;15.11;30.59
39435;BME280;30098;51.880;-0.518;2022-12-17T02:48:10;101048.63;;;15.08;30.99
39435;BME280;30098;51.880;-0.518;2022-12-17T02:50:57;101007.31;;;14.81;30.80
39435;BME280;30098;51.880;-0.518;2022-12-17T02:53:43;101045.09;;;15.08;30.80
39435;BME280;30098;51.880;-0.518;2022-12-17T02:56:44;101038.56;;;15.09;30.85
39435;BME280;30098;51.880;-0.518;2022-12-17T02:59:28;101054.31;;;15.07;30.74
39435;BME280;30098;51.880;-0.518;2022-12-17T03:02:12;101038.03;;;15.07;30.71
39435;BME280;30098;51.880;-0.518;2022-12-17T03:05:00;101038.03;;;15.07;30.63
39435;BME280;30098;51.880;-0.518;2022-12-17T03:07:44;101048.91;;;15.07;30.92
39435;BME280;30098;51.880;-0.518;2022-12-17T03:10:28;101010.84;;;14.81;30.80
39435;BME280;30098;51.880;-0.518;2022-12-17T03:13:24;101028.50;;;14.94;30.50
39435;BME280;30098;51.880;-0.518;2022-12-17T03:16:11;101058.41;;;15.04;30.89
39435;BME280;30098;51.880;-0.518;2022-12-17T03:18:56;100999.75;;;14.83;30.70
39435;BME280;30098;51.880;-0.518;2022-12-17T03:21:40;101042.91;;;15.05;30.48
39435;BME280;30098;51.880;-0.518;2022-12-17T03:24:24;101044.00;;;15.04;30.39
39435;BME280;30098;51.880;-0.518;2022-12-17T03:27:08;101037.75;;;15.03;30.43
39435;BME280;30098;51.880;-0.518;2022-12-17T03:29:52;101041.28;;;15.04;30.48
39435;BME280;30098;51.880;-0.518;2022-12-17T03:32:36;101054.03;;;15.03;30.63
39435;BME280;30098;51.880;-0.518;2022-12-17T03:35:20;101036.94;;;15.03;30.73
39435;BME280;30098;51.880;-0.518;2022-12-17T03:38:08;101046.16;;;15.02;30.96
39435;BME280;30098;51.880;-0.518;2022-12-17T03:40:52;101008.13;;;14.81;30.87
39435;BME280;30098;51.880;-0.518;2022-12-17T03:43:36;100948.66;;;14.54;30.65
39435;BME280;30098;51.880;-0.518;2022-12-17T03:46:20;100985.06;;;14.73;30.67
39435;BME280;30098;51.880;-0.518;2022-12-17T03:49:04;101028.25;;;15.01;30.53
39435;BME280;30098;51.880;-0.518;2022-12-17T03:51:48;101041.28;;;14.99;30.72
39435;BME280;30098;51.880;-0.518;2022-12-17T03:54:32;101021.44;;;14.98;30.45
39435;BME280;30098;51.880;-0.518;2022-12-17T03:57:17;101028.78;;;14.98;30.73
39435;BME280;30098;51.880;-0.518;2022-12-17T04:00:01;101020.66;;;14.98;30.46
39435;BME280;30098;51.880;-0.518;2022-12-17T04:02:45;100920.09;;;14.30;30.83
39435;BME280;30098;51.880;-0.518;2022-12-17T04:05:29;101051.84;;;14.95;30.77
39435;BME280;30098;51.880;-0.518;2022-12-17T04:08:13;101002.69;;;14.81;30.54
39435;BME280;30098;51.880;-0.518;2022-12-17T04:10:57;101025.78;;;14.94;31.04
39435;BME280;30098;51.880;-0.518;2022-12-17T04:13:41;101012.50;;;14.92;30.72
39435;BME280;30098;51.880;-0.518;2022-12-17T04:16:25;101013.59;;;14.91;30.82
39435;BME280;30098;51.880;-0.518;2022-12-17T04:19:09;100961.09;;;14.55;30.70
39435;BME280;30098;51.880;-0.518;2022-12-17T04:21:53;101013.59;;;14.91;30.88
39435;BME280;30098;51.880;-0.518;2022-12-17T04:24:37;101019.28;;;14.90;31.16
39435;BME280;30098;51.880;-0.518;2022-12-17T04:27:21;101028.50;;;14.89;30.91
39435;BME280;30098;51.880;-0.518;2022-12-17T04:30:05;101002.94;;;14.69;30.83
39435;BME280;30098;51.880;-0.518;2022-12-17T04:32:50;101035.81;;;14.88;30.62
39435;BME280;30098;51.880;-0.518;2022-12-17T04:35:34;101034.19;;;14.87;30.68
39435;BME280;30098;51.880;-0.518;2022-12-17T04:38:18;101031.75;;;14.86;30.91
39435;BME280;30098;51.880;-0.518;2022-12-17T04:41:02;101029.31;;;14.84;30.79
39435;BME280;30098;51.880;-0.518;2022-12-17T04:43:46;101029.81;;;14.81;31.06
39435;BME280;30098;51.880;-0.518;2022-12-17T04:46:30;101026.88;;;14.83;31.09
39435;BME280;30098;51.880;-0.518;2022-12-17T04:49:14;101036.88;;;14.82;30.69
39435;BME280;30098;51.880;-0.518;2022-12-17T04:51:58;101036.88;;;14.77;30.65
39435;BME280;30098;51.880;-0.518;2022-12-17T04:54:42;100842.34;;;13.62;30.68
39435;BME280;30098;51.880;-0.518;2022-12-17T04:57:29;100877.09;;;13.81;30.76
39435;BME280;30098;51.880;-0.518;2022-12-17T05:00:13;101027.09;;;14.76;31.02
39435;BME280;30098;51.880;-0.518;2022-12-17T05:03:12;100940.38;;;14.18;30.99
39435;BME280;30098;51.880;-0.518;2022-12-17T05:05:56;101048.81;;;14.76;31.10
39435;BME280;30098;51.880;-0.518;2022-12-17T05:08:40;100890.09;;;13.84;30.74
39435;BME280;30098;51.880;-0.518;2022-12-17T05:11:24;100889.00;;;13.80;30.93
39435;BME280;30098;51.880;-0.518;2022-12-17T05:14:09;101058.28;;;14.73;31.17
39435;BME280;30098;51.880;-0.518;2022-12-17T05:16:53;101037.41;;;14.74;31.31
39435;BME280;30098;51.880;-0.518;2022-12-17T05:19:37;101042.28;;;14.72;30.93
39435;BME280;30098;51.880;-0.518;2022-12-17T05:22:21;101038.75;;;14.71;30.85
39435;BME280;30098;51.880;-0.518;2022-12-17T05:25:06;101021.59;;;14.60;30.88
39435;BME280;30098;51.880;-0.518;2022-12-17T05:27:50;101042.81;;;14.69;30.89
39435;BME280;30098;51.880;-0.518;2022-12-17T05:30:34;101003.13;;;14.47;31.00
39435;BME280;30098;51.880;-0.518;2022-12-17T05:33:18;101038.47;;;14.68;30.99
39435;BME280;30098;51.880;-0.518;2022-12-17T05:36:02;101050.41;;;14.67;30.76
39435;BME280;30098;51.880;-0.518;2022-12-17T05:38:47;101039.78;;;14.65;31.31
39435;BME280;30098;51.880;-0.518;2022-12-17T05:41:32;101035.16;;;14.60;30.85
39435;BME280;30098;51.880;-0.518;2022-12-17T05:44:16;101052.00;;;14.63;30.99
39435;BME280;30098;51.880;-0.518;2022-12-17T05:47:00;100882.94;;;13.57;30.99
39435;BME280;30098;51.880;-0.518;2022-12-17T05:49:45;101053.06;;;14.61;31.22
39435;BME280;30098;51.880;-0.518;2022-12-17T05:52:29;101051.44;;;14.60;31.00
39435;BME280;30098;51.880;-0.518;2022-12-17T05:55:14;101031.59;;;14.50;31.29
39435;BME280;30098;51.880;-0.518;2022-12-17T05:58:07;101068.78;;;14.59;31.12
39435;BME280;30098;51.880;-0.518;2022-12-17T06:01:00;101052.50;;;14.54;31.14
39435;BME280;30098;51.880;-0.518;2022-12-17T06:03:45;101037.81;;;14.45;30.96
39435;BME280;30098;51.880;-0.518;2022-12-17T06:06:29;101062.00;;;14.57;31.12
39435;BME280;30098;51.880;-0.518;2022-12-17T06:09:14;101058.19;;;14.58;31.06
39435;BME280;30098;51.880;-0.518;2022-12-17T06:11:58;101053.84;;;14.57;30.84
39435;BME280;30098;51.880;-0.518;2022-12-17T06:14:42;101058.72;;;14.55;31.36
39435;BME280;30098;51.880;-0.518;2022-12-17T06:17:26;101068.50;;;14.56;30.92
39435;BME280;30098;51.880;-0.518;2022-12-17T06:20:11;101057.91;;;14.54;31.21
39435;BME280;30098;51.880;-0.518;2022-12-17T06:23:03;101059.00;;;14.53;31.10
39435;BME280;30098;51.880;-0.518;2022-12-17T06:25:48;101062.53;;;14.54;31.06
39435;BME280;30098;51.880;-0.518;2022-12-17T06:28:31;101040.50;;;14.40;31.25
39435;BME280;30098;51.880;-0.518;2022-12-17T06:31:15;101072.56;;;14.53;31.24
39435;BME280;30098;51.880;-0.518;2022-12-17T06:33:59;101060.06;;;14.52;30.90
39435;BME280;30098;51.880;-0.518;2022-12-17T06:36:44;101077.97;;;14.53;31.26
39435;BME280;30098;51.880;-0.518;2022-12-17T06:39:28;101044.50;;;14.32;31.20
39435;BME280;30098;51.880;-0.518;2022-12-17T06:42:12;101050.28;;;14.46;31.15
39435;BME280;30098;51.880;-0.518;2022-12-17T06:45:16;101038.88;;;14.39;31.08
39435;BME280;30098;51.880;-0.518;2022-12-17T06:48:01;101029.56;;;14.24;31.25
39435;BME280;30098;51.880;-0.518;2022-12-17T06:50:45;101054.63;;;14.47;30.75
39435;BME280;30098;51.880;-0.518;2022-12-17T06:53:29;101049.41;;;14.35;31.27
39435;BME280;30098;51.880;-0.518;2022-12-17T06:56:13;101077.41;;;14.51;31.16
39435;BME280;30098;51.880;-0.518;2022-12-17T06:58:57;101073.06;;;14.45;30.97
39435;BME280;30098;51.880;-0.518;2022-12-17T07:01:41;101086.38;;;14.52;30.69
39435;BME280;30098;51.880;-0.518;2022-12-17T07:04:25;101090.97;;;14.51;30.66
39435;BME280;30098;51.880;-0.518;2022-12-17T07:07:09;101073.06;;;14.50;31.20
39435;BME280;30098;51.880;-0.518;2022-12-17T07:09:53;100976.00;;;13.89;31.05
39435;BME280;30098;51.880;-0.518;2022-12-17T07:12:37;101076.03;;;14.49;31.28
39435;BME280;30098;51.880;-0.518;2022-12-17T07:15:21;101075.53;;;14.52;30.86
39435;BME280;30098;51.880;-0.518;2022-12-17T07:18:05;101087.44;;;14.51;30.93
39435;BME280;30098;51.880;-0.518;2022-12-17T07:20:52;101090.97;;;14.51;30.87
39435;BME280;30098;51.880;-0.518;2022-12-17T07:23:36;101005.00;;;13.88;31.01
39435;BME280;30098;51.880;-0.518;2022-12-17T07:26:20;101108.31;;;14.50;30.80
39435;BME280;30098;51.880;-0.518;2022-12-17T07:29:04;101083.34;;;14.43;31.21
39435;BME280;30098;51.880;-0.518;2022-12-17T07:31:47;101098.28;;;14.45;30.63
39435;BME280;30098;51.880;-0.518;2022-12-17T07:34:32;101055.06;;;14.28;30.95
39435;BME280;30098;51.880;-0.518;2022-12-17T07:37:16;101095.88;;;14.49;30.98
39435;BME280;30098;51.880;-0.518;2022-12-17T07:40:00;101096.09;;;14.48;30.87
39435;BME280;30098;51.880;-0.518;2022-12-17T07:42:44;101016.69;;;13.94;31.42
39435;BME280;30098;51.880;-0.518;2022-12-17T07:45:28;101090.66;;;14.37;31.26
39435;BME280;30098;51.880;-0.518;2022-12-17T07:48:12;101117.78;;;14.48;31.31
39435;BME280;30098;51.880;-0.518;2022-12-17T07:50:56;101096.88;;;14.38;31.38
39435;BME280;30098;51.880;-0.518;2022-12-17T07:53:40;101115.88;;;14.43;31.21
39435;BME280;30098;51.880;-0.518;2022-12-17T07:56:24;101123.50;;;14.46;31.51
39435;BME280;30098;51.880;-0.518;2022-12-17T07:59:08;101121.84;;;14.45;30.81
39435;BME280;30098;51.880;-0.518;2022-12-17T08:01:52;101116.13;;;14.36;31.00
39435;BME280;30098;51.880;-0.518;2022-12-17T08:04:36;101113.16;;;14.43;31.33
39435;BME280;30098;51.880;-0.518;2022-12-17T08:07:20;101041.06;;;13.94;31.41
39435;BME280;30098;51.880;-0.518;2022-12-17T08:10:04;101078.06;;;14.21;31.27
39435;BME280;30098;51.880;-0.518;2022-12-17T08:12:56;101123.19;;;14.42;31.17
39435;BME280;30098;51.880;-0.518;2022-12-17T08:15:40;101095.47;;;14.30;31.13
39435;BME280;30098;51.880;-0.518;2022-12-17T08:18:24;101127.25;;;14.40;31.15
39435;BME280;30098;51.880;-0.518;2022-12-17T08:21:08;101127.25;;;14.40;30.88
39435;BME280;30098;51.880;-0.518;2022-12-17T08:23:52;100953.75;;;13.39;30.83
39435;BME280;30098;51.880;-0.518;2022-12-17T08:26:36;101143.78;;;14.38;31.18
39435;BME280;30098;51.880;-0.518;2022-12-17T08:29:20;101134.03;;;14.37;31.08
39435;BME280;30098;51.880;-0.518;2022-12-17T08:32:04;101090.53;;;14.17;31.24
39435;BME280;30098;51.880;-0.518;2022-12-17T08:34:48;101120.69;;;14.36;31.16
39435;BME280;30098;51.880;-0.518;2022-12-17T08:37:32;101116.63;;;14.33;31.61
39435;BME280;30098;51.880;-0.518;2022-12-17T08:40:21;101134.25;;;14.36;31.27
39435;BME280;30098;51.880;-0.518;2022-12-17T08:43:05;101103.03;;;14.23;31.29
39435;BME280;30098;51.880;-0.518;2022-12-17T08:45:50;101096.47;;;14.19;31.60
39435;BME280;30098;51.880;-0.518;2022-12-17T08:48:35;101127.47;;;14.33;31.39
39435;BME280;30098;51.880;-0.518;2022-12-17T08:51:19;101108.19;;;14.24;30.80
39435;BME280;30098;51.880;-0.518;2022-12-17T08:54:03;101085.81;;;14.07;31.28
39435;BME280;30098;51.880;-0.518;2022-12-17T08:56:48;101119.00;;;14.24;31.45
39435;BME280;30098;51.880;-0.518;2022-12-17T08:59:32;101114.38;;;14.20;31.32
39435;BME280;30098;51.880;-0.518;2022-12-17T09:02:16;101129.88;;;14.29;31.53
39435;BME280;30098;51.880;-0.518;2022-12-17T09:05:00;101089.59;;;14.01;31.33
39435;BME280;30098;51.880;-0.518;2022-12-17T09:07:44;101125.16;;;14.09;31.06
39435;BME280;30098;51.880;-0.518;2022-12-17T09:10:29;101143.72;;;14.28;31.27
39435;BME280;30098;51.880;-0.518;2022-12-17T09:13:13;101140.19;;;14.27;31.08
39435;BME280;30098;51.880;-0.518;2022-12-17T09:15:57;101144.78;;;14.27;31.32
39435;BME280;30098;51.880;-0.518;2022-12-17T09:18:42;101158.59;;;14.25;31.66
39435;BME280;30098;51.880;-0.518;2022-12-17T09:21:27;101110.47;;;14.05;31.36
39435;BME280;30098;51.880;-0.518;2022-12-17T09:24:12;101112.38;;;14.05;31.05
39435;BME280;30098;51.880;-0.518;2022-12-17T09:26:56;101163.47;;;14.23;30.87
39435;BME280;30098;51.880;-0.518;2022-12-17T09:29:40;101147.19;;;14.23;31.28
39435;BME280;30098;51.880;-0.518;2022-12-17T09:32:25;100993.34;;;13.23;30.84
39435;BME280;30098;51.880;-0.518;2022-12-17T09:35:09;101143.63;;;14.18;31.48
39435;BME280;30098;51.880;-0.518;2022-12-17T09:38:19;101122.16;;;14.06;31.01
39435;BME280;30098;51.880;-0.518;2022-12-17T09:41:26;101151.25;;;14.21;31.20
39435;BME280;30098;51.880;-0.518;2022-12-17T09:44:21;101147.72;;;14.20;31.18
39435;BME280;30098;51.880;-0.518;2022-12-17T09:47:40;101122.16;;;14.06;31.39
39435;BME280;30098;51.880;-0.518;2022-12-17T09:50:27;101149.03;;;14.18;31.27
39435;BME280;30098;51.880;-0.518;2022-12-17T09:53:21;101139.31;;;14.17;31.44
39435;BME280;30098;51.880;-0.518;2022-12-17T09:56:09;101147.44;;;14.17;31.45
39435;BME280;30098;51.880;-0.518;2022-12-17T09:58:55;101140.63;;;14.14;31.36
39435;BME280;30098;51.880;-0.518;2022-12-17T10:01:39;101109.59;;;13.94;31.67
39435;BME280;30098;51.880;-0.518;2022-12-17T10:04:52;101138.75;;;14.14;31.43
39435;BME280;30098;51.880;-0.518;2022-12-17T10:07:37;101139.78;;;14.08;31.04
39435;BME280;30098;51.880;-0.518;2022-12-17T10:10:24;101143.59;;;14.12;31.38
39435;BME280;30098;51.880;-0.518;2022-12-17T10:13:12;101143.59;;;14.12;31.10
39435;BME280;30098;51.880;-0.518;2022-12-17T10:15:57;101167.94;;;14.07;30.95
39435;BME280;30098;51.880;-0.518;2022-12-17T10:18:41;101152.00;;;14.11;31.06
39435;BME280;30098;51.880;-0.518;2022-12-17T10:21:29;101142.66;;;13.96;31.41
39435;BME280;30098;51.880;-0.518;2022-12-17T10:24:13;101162.25;;;14.09;31.43
39435;BME280;30098;51.880;-0.518;2022-12-17T10:26:57;101149.56;;;14.09;31.34
39435;BME280;30098;51.880;-0.518;2022-12-17T10:29:43;101138.88;;;13.97;31.65
39435;BME280;30098;51.880;-0.518;2022-12-17T10:32:28;101040.22;;;13.28;31.62
39435;BME280;30098;51.880;-0.518;2022-12-17T10:35:18;101162.53;;;14.07;31.29
39435;BME280;30098;51.880;-0.518;2022-12-17T10:38:28;101156.28;;;14.07;31.56
39435;BME280;30098;51.880;-0.518;2022-12-17T10:41:33;101137.75;;;13.93;31.38
39435;BME280;30098;51.880;-0.518;2022-12-17T10:47:20;101161.97;;;14.05;31.62
39435;BME280;30098;51.880;-0.518;2022-12-17T10:50:10;101146.78;;;14.04;31.71
39435;BME280;30098;51.880;-0.518;2022-12-17T10:52:56;101151.41;;;14.04;31.38
39435;BME280;30098;51.880;-0.518;2022-12-17T10:55:49;101158.69;;;14.03;31.63
39435;BME280;30098;51.880;-0.518;2022-12-17T10:58:35;101040.78;;;13.30;31.83
39435;BME280;30098;51.880;-0.518;2022-12-17T11:01:22;101100.97;;;13.65;31.86
39435;BME280;30098;51.880;-0.518;2022-12-17T11:07:14;101151.91;;;14.01;31.57
39435;BME280;30098;51.880;-0.518;2022-12-17T11:10:01;101142.38;;;13.93;31.79
39435;BME280;30098;51.880;-0.518;2022-12-17T11:12:58;101142.97;;;14.00;32.09
39435;BME280;30098;51.880;-0.518;2022-12-17T11:15:56;101157.31;;;14.01;31.22
39435;BME280;30098;51.880;-0.518;2022-12-17T11:18:51;101143.22;;;13.98;31.46
39435;BME280;30098;51.880;-0.518;2022-12-17T11:21:49;101153.22;;;13.98;31.72
39435;BME280;30098;51.880;-0.518;2022-12-17T11:24:40;101121.66;;;13.81;31.79
39435;BME280;30098;51.880;-0.518;2022-12-17T11:27:28;101130.41;;;13.89;31.85
39435;BME280;30098;51.880;-0.518;2022-12-17T11:30:15;101131.81;;;13.96;32.02
39435;BME280;30098;51.880;-0.518;2022-12-17T11:36:13;101143.47;;;13.97;31.40
39435;BME280;30098;51.880;-0.518;2022-12-17T11:39:08;101128.56;;;13.94;31.32
39435;BME280;30098;51.880;-0.518;2022-12-17T11:48:28;101135.88;;;13.94;31.38
39435;BME280;30098;51.880;-0.518;2022-12-17T11:51:18;101129.75;;;13.76;31.65
39435;BME280;30098;51.880;-0.518;2022-12-17T11:54:41;101136.13;;;13.92;31.36
39435;BME280;30098;51.880;-0.518;2022-12-17T11:57:36;101112.09;;;13.69;31.54
39435;BME280;30098;51.880;-0.518;2022-12-17T12:00:25;101109.31;;;13.63;31.97
39435;BME280;30098;51.880;-0.518;2022-12-17T12:06:50;101131.78;;;13.91;31.64
39435;BME280;30098;51.880;-0.518;2022-12-17T12:18:23;101126.06;;;13.88;31.66
39435;BME280;30098;51.880;-0.518;2022-12-17T12:27:40;101126.06;;;13.88;32.19
39435;BME280;30098;51.880;-0.518;2022-12-17T12:30:43;101128.78;;;13.88;32.18
39435;BME280;30098;51.880;-0.518;2022-12-17T12:33:43;101127.16;;;13.87;31.72
39435;BME280;30098;51.880;-0.518;2022-12-17T12:36:29;100799.69;;;11.80;31.48
39435;BME280;30098;51.880;-0.518;2022-12-17T12:39:18;101106.16;;;13.72;31.90
39435;BME280;30098;51.880;-0.518;2022-12-17T12:42:11;101125.50;;;13.86;32.18
39435;BME280;30098;51.880;-0.518;2022-12-17T12:45:05;101120.34;;;13.84;32.01
39435;BME280;30098;51.880;-0.518;2022-12-17T12:51:10;101121.44;;;13.83;32.15
39435;BME280;30098;51.880;-0.518;2022-12-17T12:53:59;101126.84;;;13.83;32.01
39435;BME280;30098;51.880;-0.518;2022-12-17T12:56:43;101118.97;;;13.81;31.91
39435;BME280;30098;51.880;-0.518;2022-12-17T12:59:30;101127.09;;;13.81;32.17
39435;BME280;30098;51.880;-0.518;2022-12-17T13:02:27;101124.38;;;13.81;31.83
39435;BME280;30098;51.880;-0.518;2022-12-17T13:10:35;101125.44;;;13.80;31.58
39435;BME280;30098;51.880;-0.518;2022-12-17T13:13:28;101126.28;;;13.81;31.61
39435;BME280;30098;51.880;-0.518;2022-12-17T13:16:00;101130.06;;;13.80;32.14
39435;BME280;30098;51.880;-0.518;2022-12-17T13:18:35;101139.00;;;13.80;32.25
39435;BME280;30098;51.880;-0.518;2022-12-17T13:21:23;101084.88;;;13.53;31.93
39435;BME280;30098;51.880;-0.518;2022-12-17T13:23:48;101109.25;;;13.53;32.43
39435;BME280;30098;51.880;-0.518;2022-12-17T13:28:48;101151.72;;;13.80;31.72
39435;BME280;30098;51.880;-0.518;2022-12-17T13:31:26;101150.09;;;13.79;31.79
39435;BME280;30098;51.880;-0.518;2022-12-17T13:39:53;101134.69;;;13.79;32.48
39435;BME280;30098;51.880;-0.518;2022-12-17T13:42:29;101136.56;;;13.79;32.13
39435;BME280;30098;51.880;-0.518;2022-12-17T13:44:56;101143.88;;;13.78;32.16
39435;BME280;30098;51.880;-0.518;2022-12-17T13:47:25;101134.09;;;13.77;32.04
39435;BME280;30098;51.880;-0.518;2022-12-17T13:49:57;101023.22;;;13.06;32.09
39435;BME280;30098;51.880;-0.518;2022-12-17T13:52:27;101170.13;;;13.78;31.74
39435;BME280;30098;51.880;-0.518;2022-12-17T13:55:04;101135.97;;;13.77;32.25
39435;BME280;30098;51.880;-0.518;2022-12-17T13:57:30;101149.53;;;13.77;31.94
39435;BME280;30098;51.880;-0.518;2022-12-17T13:59:59;101148.44;;;13.78;32.01
39435;BME280;30098;51.880;-0.518;2022-12-17T14:02:32;101166.59;;;13.77;32.45
39435;BME280;30098;51.880;-0.518;2022-12-17T14:05:00;101120.47;;;13.67;31.83
39435;BME280;30098;51.880;-0.518;2022-12-17T14:07:27;101149.78;;;13.75;32.10
39435;BME280;30098;51.880;-0.518;2022-12-17T14:09:53;100970.88;;;12.62;32.47
39435;BME280;30098;51.880;-0.518;2022-12-17T14:12:22;101147.06;;;13.75;31.77
39435;BME280;30098;51.880;-0.518;2022-12-17T14:22:38;101151.84;;;13.63;32.54
39435;BME280;30098;51.880;-0.518;2022-12-17T14:25:12;101155.47;;;13.74;32.14
39435;BME280;30098;51.880;-0.518;2022-12-17T14:27:39;101150.00;;;13.69;32.29
39435;BME280;30098;51.880;-0.518;2022-12-17T14:30:38;101152.75;;;13.74;32.03
39435;BME280;30098;51.880;-0.518;2022-12-17T14:33:24;101128.69;;;13.50;31.84
39435;BME280;30098;51.880;-0.518;2022-12-17T14:35:51;101130.59;;;13.49;32.34
39435;BME280;30098;51.880;-0.518;2022-12-17T14:38:19;101165.47;;;13.73;32.51
39435;BME280;30098;51.880;-0.518;2022-12-17T14:40:44;101150.25;;;13.67;32.10
39435;BME280;30098;51.880;-0.518;2022-12-17T14:43:12;101160.31;;;13.72;32.45
39435;BME280;30098;51.880;-0.518;2022-12-17T14:45:37;101173.06;;;13.71;32.19
39435;BME280;30098;51.880;-0.518;2022-12-17T14:48:24;101160.31;;;13.72;32.08
39435;BME280;30098;51.880;-0.518;2022-12-17T14:56:39;101160.59;;;13.70;32.17
39435;BME280;30098;51.880;-0.518;2022-12-17T15:01:51;101167.06;;;13.69;32.24
39435;BME280;30098;51.880;-0.518;2022-12-17T15:04:17;101167.06;;;13.69;32.52
39435;BME280;30098;51.880;-0.518;2022-12-17T15:06:42;101183.59;;;13.68;32.26
39435;BME280;30098;51.880;-0.518;2022-12-17T15:09:10;101045.22;;;12.87;32.06
39435;BME280;30098;51.880;-0.518;2022-12-17T15:11:36;101180.88;;;13.68;32.46
39435;BME280;30098;51.880;-0.518;2022-12-17T15:14:01;101166.75;;;13.65;32.52
39435;BME280;30098;51.880;-0.518;2022-12-17T15:16:26;101171.91;;;13.67;32.45
39435;BME280;30098;51.880;-0.518;2022-12-17T15:18:52;101173.81;;;13.66;32.45
39435;BME280;30098;51.880;-0.518;2022-12-17T15:21:18;101175.47;;;13.68;31.97
39435;BME280;30098;51.880;-0.518;2022-12-17T15:23:44;101165.69;;;13.66;32.35
39435;BME280;30098;51.880;-0.518;2022-12-17T15:26:11;101164.84;;;13.66;32.38
39435;BME280;30098;51.880;-0.518;2022-12-17T15:28:38;101162.94;;;13.61;32.31